Hoosier, Illinois
Current Conditions -  °F | °C
As of 8:35 AM on Monday 26 Jan 2015 (Local Time) from KFOA Reporting Station
Overcast Overcast  
Wind Chill: 17°   Ceiling: 1200
Heat Index: 27°   Visibility: 10mi
Dew Point: 23°   Wind: 12mph
Humidity: 84%   Direction: 290°WNW
Pressure: 30.03"   Gusts: NA
Location:  38.8267°N, 88.5024°W
Report Text: KFOA 261435Z AUTO 29010KT 10SM OVC012 M03/M05 A3003 RMK AO2 T10261049
Loading
Personal Weather Stations






























Interactive Weather Map New forecast layout! Learn more

10-Day Weather Forecast

Advertisements
Track Severe Weather on mobile